Puerto Bermejo, Argentina
Current Conditions -  °F | °C
As of 6:00 PM on Friday 31 Oct 2014 (Local Time) from SARC Reporting Station
Scattered Clouds Scattered Clouds  
Wind Chill: 81°   Ceiling: Unl
Heat Index: 83°   Visibility: 6mi
Dew Point: 68°   Wind: 13mph
Humidity: 65%   Direction: 140°SE
Pressure: 29.77"   Gusts: NA
Location:  26.93°S, 58.5°W
Report Text: SARC 312100Z 14011KT 9999 SCT030 FEW050CB27/20 Q1008
Loading
Personal Weather Stations






























Interactive Weather Map
Tropical Storm Tracking
New forecast layout! Learn more

10-Day Weather Forecast

Advertisements
Track Severe Weather on mobile